Time;durP1;ratioP1;P1;durP2;ratioP2;P2;SDS_P1;SDS_P2;PMS_P1;PMS_P2;Temp;Humidity;BMP_temperature;BMP_pressure;BME280_temperature;BME280_humidity;BME280_pressure;Samples;Min_cycle;Max_cycle;Signal;HPM_P1;HPM_P2
2022/10/12 00:00:48;;;;;;;28.33;15.10;;;;;;;19.00;57.95;98770.50;5299819;27;20045;-80
2022/10/12 00:03:16;;;;;;;30.37;15.57;;;;;;;19.26;56.62;98769.62;5299253;27;20057;-79
2022/10/12 00:05:43;;;;;;;30.23;15.35;;;;;;;19.21;56.45;98771.69;5299534;27;20057;-79
2022/10/12 00:08:10;;;;;;;25.10;13.13;;;;;;;18.94;57.45;98770.91;5299752;27;20699;-80
2022/10/12 00:10:41;;;;;;;29.42;15.52;;;;;;;18.95;57.74;98770.81;5299297;27;20049;-79
2022/10/12 00:13:09;;;;;;;26.17;14.02;;;;;;;18.90;58.13;98772.88;5299693;27;20079;-79
2022/10/12 00:15:39;;;;;;;27.27;14.30;;;;;;;19.11;57.18;98773.25;5299404;27;20061;-79
2022/10/12 00:18:06;;;;;;;23.48;12.55;;;;;;;19.04;57.58;98772.00;5299018;27;20049;-80
2022/10/12 00:20:33;;;;;;;27.55;12.57;;;;;;;18.72;58.36;98774.09;5299771;27;20041;-80
2022/10/12 00:23:00;;;;;;;21.98;12.25;;;;;;;18.65;58.04;98778.84;5299612;27;20075;-80
2022/10/12 00:25:27;;;;;;;22.80;12.10;;;;;;;18.72;58.11;98780.16;5299209;27;20088;-80
2022/10/12 00:27:54;;;;;;;24.80;12.68;;;;;;;18.27;59.43;98776.00;5299643;27;20064;-80
2022/10/12 00:30:21;;;;;;;22.37;12.37;;;;;;;18.81;58.16;98775.25;5299689;27;20045;-80
2022/10/12 00:32:48;;;;;;;23.92;12.37;;;;;;;18.53;58.74;98787.44;5299356;27;20071;-80
2022/10/12 00:35:15;;;;;;;26.80;12.75;;;;;;;18.67;57.73;98784.81;5299384;27;20080;-80
2022/10/12 00:37:42;;;;;;;23.25;11.57;;;;;;;18.82;56.71;98783.00;5299088;27;20060;-79
2022/10/12 00:40:09;;;;;;;19.92;10.80;;;;;;;18.54;57.06;98783.06;5299644;27;20045;-80
2022/10/12 00:42:36;;;;;;;19.85;10.38;;;;;;;18.64;56.65;98782.41;5299570;27;20057;-79
2022/10/12 00:45:03;;;;;;;18.85;9.77;;;;;;;18.22;58.05;98778.09;5298933;27;20753;-79
2022/10/12 00:47:35;;;;;;;19.80;10.38;;;;;;;18.18;58.64;98782.69;5299583;27;20692;-80
2022/10/12 00:50:20;;;;;;;22.25;10.65;;;;;;;18.17;59.05;98786.19;5299550;27;20045;-79
2022/10/12 00:53:10;;;;;;;20.15;10.43;;;;;;;18.07;59.31;98779.84;5279183;27;20060;-79
2022/10/12 00:55:40;;;;;;;22.13;11.38;;;;;;;18.31;58.35;98782.75;5299353;27;20065;-79
2022/10/12 00:58:07;;;;;;;20.65;11.02;;;;;;;17.67;60.16;98781.44;5299596;27;20090;-80
2022/10/12 01:00:36;;;;;;;20.05;11.05;;;;;;;17.53;60.87;98786.59;5299103;27;20077;-79
2022/10/12 01:03:03;;;;;;;23.48;12.63;;;;;;;18.14;58.98;98777.72;5279959;27;20460;-79
2022/10/12 01:05:30;;;;;;;22.20;11.60;;;;;;;18.43;57.31;98781.97;5299284;27;20080;-79
2022/10/12 01:07:59;;;;;;;21.40;11.02;;;;;;;18.15;58.01;98777.62;5279685;27;20403;-80
2022/10/12 01:10:26;;;;;;;21.60;10.88;;;;;;;17.79;59.04;98777.28;5299428;27;20046;-80
2022/10/12 01:12:53;;;;;;;22.30;11.50;;;;;;;17.97;58.35;98778.78;5299088;27;20060;-80
2022/10/12 01:15:22;;;;;;;28.08;11.85;;;;;;;17.73;59.13;98780.25;5299206;27;20065;-79
2022/10/12 01:18:15;;;;;;;23.27;12.10;;;;;;;17.39;60.39;98777.00;5279402;27;20060;-79
2022/10/12 01:20:55;;;;;;;23.27;11.35;;;;;;;18.20;58.05;98788.63;5298936;27;20399;-79
2022/10/12 01:23:36;;;;;;;20.92;11.38;;;;;;;18.08;57.41;98789.41;5299374;27;20417;-79
2022/10/12 01:26:32;;;;;;;22.17;11.73;;;;;;;18.07;57.15;98790.31;5299354;27;20065;-79
2022/10/12 01:29:22;;;;;;;26.85;12.63;;;;;;;18.25;56.43;98780.50;5298965;27;20490;-79
2022/10/12 01:31:53;;;;;;;31.87;15.10;;;;;;;18.11;56.35;98780.53;5279920;27;20071;-79
2022/10/12 01:34:29;;;;;;;25.62;13.38;;;;;;;17.83;57.65;98783.97;5298924;27;20125;-79
2022/10/12 01:37:23;;;;;;;27.92;13.27;;;;;;;18.74;55.00;98785.28;5299113;27;20129;-79
2022/10/12 01:39:56;;;;;;;26.37;12.93;;;;;;;18.82;54.43;98784.75;5299245;27;20064;-80
2022/10/12 01:42:26;;;;;;;22.92;13.15;;;;;;;18.21;55.84;98781.63;5298892;27;20045;-80
2022/10/12 01:45:07;;;;;;;27.52;14.15;;;;;;;18.07;56.64;98786.84;5279681;27;20090;-80
2022/10/12 01:47:36;;;;;;;28.52;15.18;;;;;;;17.72;56.74;98783.78;5299174;27;20057;-80
2022/10/12 01:50:05;;;;;;;31.75;15.50;;;;;;;18.35;55.77;98788.59;5298685;27;20053;-79
2022/10/12 01:52:57;;;;;;;28.58;14.73;;;;;;;17.89;57.06;98789.66;5279819;27;20384;-80
2022/10/12 01:55:33;;;;;;;26.37;13.70;;;;;;;17.95;56.81;98787.59;5279335;27;20072;-79
2022/10/12 01:58:31;;;;;;;25.02;12.18;;;;;;;17.72;57.31;98783.78;5299070;27;20126;-79
2022/10/12 02:01:15;;;;;;;19.90;10.88;;;;;;;17.78;57.26;98783.44;5299154;27;20049;-80
2022/10/12 02:03:47;;;;;;;20.15;10.20;;;;;;;17.67;57.39;98776.22;5299182;27;20102;-79
2022/10/12 02:06:17;;;;;;;21.23;10.50;;;;;;;17.27;58.30;98777.72;5280667;27;20395;-79
2022/10/12 02:08:47;;;;;;;24.40;10.30;;;;;;;17.83;56.43;98782.19;5280939;27;20071;-79
2022/10/12 02:11:18;;;;;;;19.05;9.73;;;;;;;17.54;57.03;98783.06;5299813;27;20049;-79
2022/10/12 02:14:00;;;;;;;20.60;9.48;;;;;;;17.19;58.30;98780.75;5280710;27;20045;-79
2022/10/12 02:16:32;;;;;;;20.20;9.82;;;;;;;17.32;58.08;98788.72;5280294;27;20061;-79
2022/10/12 02:18:59;;;;;;;19.58;10.23;;;;;;;17.63;56.78;98783.38;5280559;27;20065;-79
2022/10/12 02:21:30;;;;;;;24.20;11.93;;;;;;;18.15;55.79;98797.66;5300003;27;20063;-79
2022/10/12 02:24:00;;;;;;;19.17;10.18;;;;;;;17.52;58.23;98791.00;5299668;27;20059;-79
2022/10/12 02:26:27;;;;;;;21.52;11.32;;;;;;;17.29;59.23;98789.75;5280414;27;20460;-79
2022/10/12 02:28:54;;;;;;;21.65;10.55;;;;;;;17.25;60.27;98790.84;5280683;27;20057;-79
2022/10/12 02:31:32;;;;;;;25.25;11.15;;;;;;;17.26;60.60;98786.47;5299685;27;20110;-79
2022/10/12 02:34:01;;;;;;;23.33;11.43;;;;;;;17.02;61.20;98786.97;5300092;27;20042;-79
2022/10/12 02:36:35;;;;;;;25.08;11.73;;;;;;;17.30;61.00;98794.03;5300008;27;20419;-79
2022/10/12 02:39:12;;;;;;;22.10;10.65;;;;;;;17.18;61.59;98792.13;5280282;27;20068;-79
2022/10/12 02:41:44;;;;;;;22.15;11.00;;;;;;;17.33;60.91;98791.25;5280850;27;20049;-79
2022/10/12 02:44:14;;;;;;;22.65;11.60;;;;;;;17.19;61.60;98792.97;5280359;27;20045;-79
2022/10/12 02:46:42;;;;;;;20.90;10.60;;;;;;;17.82;59.05;98793.56;5280447;27;20423;-79
2022/10/12 02:49:10;;;;;;;21.10;11.45;;;;;;;17.80;58.81;98786.78;5280528;27;20400;-80
2022/10/12 02:51:38;;;;;;;23.27;12.20;;;;;;;17.50;59.66;98787.63;5299622;27;20048;-79
2022/10/12 02:54:05;;;;;;;23.05;12.40;;;;;;;17.87;59.04;98796.75;5262680;27;20041;-79
2022/10/12 02:56:32;;;;;;;22.45;11.70;;;;;;;17.64;60.11;98787.66;5280385;27;20062;-80
2022/10/12 02:58:59;;;;;;;23.77;11.82;;;;;;;18.09;58.39;98796.28;5299557;27;20068;-79
2022/10/12 03:01:26;;;;;;;20.90;11.07;;;;;;;17.83;58.25;98802.25;5280499;27;20053;-79
2022/10/12 03:03:53;;;;;;;21.80;11.43;;;;;;;17.52;59.14;98793.59;5299918;27;20049;-79
2022/10/12 03:06:20;;;;;;;23.48;11.80;;;;;;;17.05;60.43;98789.41;5299451;27;20065;-79
2022/10/12 03:08:47;;;;;;;22.73;11.75;;;;;;;17.19;59.69;98787.75;5299977;27;20076;-79
2022/10/12 03:11:14;;;;;;;21.70;11.88;;;;;;;16.89;60.34;98788.56;5299752;27;20048;-79
2022/10/12 03:13:41;;;;;;;23.15;12.05;;;;;;;17.17;59.28;98782.63;5299640;27;20422;-79
2022/10/12 03:16:09;;;;;;;24.52;11.90;;;;;;;17.61;57.88;98780.00;5299328;27;20070;-79
2022/10/12 03:18:37;;;;;;;26.10;11.18;;;;;;;17.41;58.00;98784.72;5276517;27;20099;-79
2022/10/12 03:21:04;;;;;;;23.05;11.63;;;;;;;17.38;58.11;98782.31;5277841;27;20092;-79
2022/10/12 03:23:31;;;;;;;23.25;11.65;;;;;;;17.19;58.77;98785.16;5278097;27;20487;-79
2022/10/12 03:25:58;;;;;;;24.33;11.35;;;;;;;17.13;58.52;98783.75;5277743;27;20672;-79
2022/10/12 03:28:25;;;;;;;20.83;11.10;;;;;;;17.37;57.65;98788.47;5277688;27;20407;-80
2022/10/12 03:30:52;;;;;;;23.67;12.00;;;;;;;17.55;56.89;98779.56;5278026;27;20057;-79
2022/10/12 03:33:19;;;;;;;22.98;12.32;;;;;;;17.14;58.26;98785.41;5277646;27;20057;-79
2022/10/12 03:35:47;;;;;;;21.83;11.85;;;;;;;17.70;55.88;98785.66;5277798;27;20062;-79
2022/10/12 03:38:14;;;;;;;23.58;11.82;;;;;;;17.24;56.64;98786.56;5278040;27;20081;-79
2022/10/12 03:40:41;;;;;;;20.95;10.80;;;;;;;17.26;56.60;98786.47;5277615;27;20057;-79
2022/10/12 03:43:08;;;;;;;21.73;10.55;;;;;;;17.77;55.30;98779.97;5278048;27;20046;-79
2022/10/12 03:45:35;;;;;;;20.70;10.50;;;;;;;17.23;56.91;98786.66;5277719;27;20122;-79
2022/10/12 03:48:03;;;;;;;22.08;11.02;;;;;;;17.04;57.48;98784.28;5277602;27;20061;-80
2022/10/12 03:50:33;;;;;;;22.80;11.43;;;;;;;16.82;57.72;98783.81;5278032;27;20045;-79
2022/10/12 03:53:02;;;;;;;25.00;11.43;;;;;;;16.55;58.34;98781.78;5276670;27;20045;-79
2022/10/12 03:55:29;;;;;;;25.20;11.60;;;;;;;16.43;58.86;98780.69;5275999;27;20126;-79
2022/10/12 03:57:56;;;;;;;22.13;11.63;;;;;;;16.58;58.17;98784.19;5278051;27;20071;-79
2022/10/12 04:00:23;;;;;;;24.08;12.43;;;;;;;17.10;56.82;98781.28;5277876;27;20392;-79
2022/10/12 04:02:50;;;;;;;25.48;12.05;;;;;;;16.95;57.39;98784.78;5276142;27;20049;-79
2022/10/12 04:05:17;;;;;;;27.30;14.25;;;;;;;16.67;58.57;98781.09;5277669;27;20073;-79
2022/10/12 04:07:43;;;;;;;26.98;12.60;;;;;;;16.69;58.88;98775.81;5277866;27;20061;-79
2022/10/12 04:10:10;;;;;;;26.27;13.27;;;;;;;17.44;56.19;98784.53;5277553;27;20063;-79
2022/10/12 04:12:37;;;;;;;24.30;12.57;;;;;;;16.99;57.02;98781.91;5277920;27;20045;-79
2022/10/12 04:15:05;;;;;;;28.40;13.52;;;;;;;16.51;59.32;98784.66;5277815;27;20062;-79
2022/10/12 04:17:32;;;;;;;25.15;13.40;;;;;;;17.04;58.94;98784.28;5285689;27;20053;-79
2022/10/12 04:19:58;;;;;;;29.02;14.32;;;;;;;16.30;61.59;98784.06;5299697;27;20410;-79
2022/10/12 04:22:25;;;;;;;33.72;16.87;;;;;;;16.06;63.52;98783.63;5299312;27;20434;-79
2022/10/12 04:24:52;;;;;;;35.13;18.95;;;;;;;16.77;59.86;98786.66;5299452;27;20507;-79
2022/10/12 04:27:19;;;;;;;37.42;19.92;;;;;;;16.44;60.35;98786.75;5299491;27;20084;-80
2022/10/12 04:29:46;;;;;;;34.33;18.45;;;;;;;16.17;61.25;98781.28;5299255;27;20045;-79
2022/10/12 04:32:13;;;;;;;35.13;18.37;;;;;;;16.89;58.80;98785.97;5299840;27;20050;-79
2022/10/12 04:34:40;;;;;;;37.75;17.85;;;;;;;16.52;59.55;98794.97;5299470;27;20061;-79
2022/10/12 04:37:07;;;;;;;35.70;18.37;;;;;;;16.92;58.42;98795.41;5299170;27;20061;-79
2022/10/12 04:39:33;;;;;;;36.88;16.58;;;;;;;17.13;58.04;98794.19;5299764;27;20396;-80
2022/10/12 04:42:01;;;;;;;35.88;17.10;;;;;;;16.41;60.15;98792.97;5299619;27;20392;-79
2022/10/12 04:44:28;;;;;;;38.17;18.37;;;;;;;15.90;61.13;98793.97;5299215;27;20070;-79
2022/10/12 04:46:59;;;;;;;41.37;19.30;;;;;;;15.99;61.25;98797.88;5299433;27;20481;-79
2022/10/12 04:49:26;;;;;;;40.75;18.70;;;;;;;17.18;57.65;98791.28;5299502;27;20045;-79
2022/10/12 04:51:52;;;;;;;39.08;19.40;;;;;;;17.13;57.99;98795.94;5299206;27;20063;-79
2022/10/12 04:54:19;;;;;;;40.10;19.50;;;;;;;16.84;58.06;98803.66;5299534;27;20057;-79
2022/10/12 04:56:46;;;;;;;39.33;19.45;;;;;;;16.43;59.84;98798.09;5299494;27;20720;-79
2022/10/12 04:59:14;;;;;;;41.42;19.00;;;;;;;16.56;58.69;98799.09;5299105;27;20049;-79
2022/10/12 05:01:41;;;;;;;34.60;18.37;;;;;;;16.49;59.67;98805.56;5280198;27;20046;-79
2022/10/12 05:04:08;;;;;;;44.00;21.27;;;;;;;16.77;57.72;98810.94;5299350;27;20088;-80
2022/10/12 05:06:35;;;;;;;41.42;20.25;;;;;;;16.89;57.24;98809.44;5299071;27;20061;-80
2022/10/12 05:09:02;;;;;;;39.60;20.92;;;;;;;16.59;58.37;98817.16;5299441;27;20064;-79
2022/10/12 05:11:29;;;;;;;42.47;22.00;;;;;;;16.48;58.63;98820.37;5299073;27;20082;-79
2022/10/12 05:13:56;;;;;;;48.63;24.23;;;;;;;17.02;56.64;98820.88;5279964;27;20076;-79
2022/10/12 05:16:23;;;;;;;46.53;24.27;;;;;;;16.31;58.64;98819.59;5299252;27;20402;-79
2022/10/12 05:18:50;;;;;;;63.50;32.08;;;;;;;15.86;60.74;98818.50;5298871;27;20053;-79
2022/10/12 05:21:16;;;;;;;52.62;27.13;;;;;;;15.93;61.50;98825.03;5299380;27;20394;-80
2022/10/12 05:23:43;;;;;;;46.15;24.02;;;;;;;16.44;60.27;98829.25;5299445;27;20057;-80
2022/10/12 05:26:10;;;;;;;44.33;21.95;;;;;;;16.34;61.49;98833.28;5298699;27;20324;-80
2022/10/12 05:28:37;;;;;;;43.40;21.75;;;;;;;16.48;61.81;98829.91;5299286;27;20113;-80
2022/10/12 05:31:07;;;;;;;43.38;23.15;;;;;;;16.74;62.08;98831.12;5299232;27;20048;-80
2022/10/12 05:33:34;;;;;;;43.30;24.08;;;;;;;16.83;62.00;98835.00;5298914;27;20058;-80
2022/10/12 05:36:00;;;;;;;43.03;24.52;;;;;;;16.79;62.13;98831.72;5298963;27;20057;-80
2022/10/12 05:38:27;;;;;;;42.42;23.38;;;;;;;16.92;61.42;98831.91;5280044;27;20524;-80
2022/10/12 05:40:54;;;;;;;45.63;23.65;;;;;;;16.91;61.57;98825.00;5299869;27;20060;-80
2022/10/12 05:43:26;;;;;;;40.28;20.67;;;;;;;17.00;62.07;98832.28;5300373;27;20072;-80
2022/10/12 05:45:53;;;;;;;40.47;20.35;;;;;;;17.40;62.68;98830.84;5299922;27;20121;-80
2022/10/12 05:48:20;;;;;;;33.60;18.35;;;;;;;18.30;58.37;98838.53;5306741;27;20031;-80
2022/10/12 05:50:47;;;;;;;29.42;15.73;;;;;;;18.83;55.96;98834.37;5310981;27;20049;-81
2022/10/12 05:53:14;;;;;;;28.10;14.95;;;;;;;19.28;53.05;98827.91;5307743;27;20076;-80
2022/10/12 05:55:54;;;;;;;31.33;16.45;;;;;;;19.00;53.29;98839.34;5297798;27;20076;-80
2022/10/12 05:58:31;;;;;;;35.47;17.20;;;;;;;18.76;53.69;98840.91;5299786;27;20057;-79
2022/10/12 06:01:08;;;;;;;32.15;17.70;;;;;;;18.29;55.31;98836.00;5298867;27;20126;-81
2022/10/12 06:03:36;;;;;;;30.88;15.13;;;;;;;17.58;57.13;98832.38;5300668;27;20546;-80
2022/10/12 06:06:05;;;;;;;26.52;13.45;;;;;;;18.24;55.20;98833.69;5298263;27;20060;-79
2022/10/12 06:08:33;;;;;;;32.60;15.00;;;;;;;18.55;53.85;98837.84;5298855;27;20057;-81
2022/10/12 06:11:01;;;;;;;27.70;14.65;;;;;;;18.24;54.88;98833.69;5299402;27;20045;-81
2022/10/12 06:13:28;;;;;;;24.50;13.73;;;;;;;18.56;55.10;98842.13;5299481;27;20072;-80
2022/10/12 06:15:56;;;;;;;28.70;14.50;;;;;;;19.02;54.74;98840.06;5298106;27;20065;-81
2022/10/12 06:18:24;;;;;;;29.95;13.98;;;;;;;19.36;54.38;98833.50;5298204;27;20109;-82
2022/10/12 06:20:53;;;;;;;29.25;13.20;;;;;;;19.50;54.92;98836.97;5299295;27;20044;-81
2022/10/12 06:23:40;;;;;;;24.90;13.60;;;;;;;18.93;55.57;98845.91;5299190;27;20073;-81
2022/10/12 06:26:07;;;;;;;27.40;13.52;;;;;;;19.80;54.13;98855.06;5298801;27;20087;-81
2022/10/12 06:28:35;;;;;;;21.87;11.52;;;;;;;20.34;53.16;98860.06;5299259;27;20124;-80
2022/10/12 06:31:03;;;;;;;23.15;12.50;;;;;;;19.61;54.26;98855.44;5299688;27;20387;-80
2022/10/12 06:33:30;;;;;;;21.62;11.20;;;;;;;18.61;58.67;98863.59;5299962;27;20067;-79
2022/10/12 06:35:58;;;;;;;31.80;13.50;;;;;;;19.12;57.11;98868.25;5298176;27;20117;-78
2022/10/12 06:38:25;;;;;;;28.80;14.07;;;;;;;17.10;65.11;98861.28;5298222;27;20067;-78
2022/10/12 06:40:53;;;;;;;27.45;14.70;;;;;;;17.20;66.03;98858.06;5299083;27;20369;-78
2022/10/12 06:43:23;;;;;;;28.05;14.98;;;;;;;17.54;66.60;98856.97;5298809;27;20434;-78
2022/10/12 06:45:51;;;;;;;30.98;16.45;;;;;;;17.11;69.00;98857.75;5298516;27;20053;-78
2022/10/12 06:48:18;;;;;;;33.38;17.92;;;;;;;16.95;69.59;98860.38;5298449;27;20068;-78
2022/10/12 06:50:46;;;;;;;29.85;15.85;;;;;;;15.91;75.82;98860.72;5298949;27;20059;-77
2022/10/12 06:53:13;;;;;;;29.90;16.90;;;;;;;18.49;66.36;98870.41;5299132;27;20421;-79
2022/10/12 06:55:41;;;;;;;32.90;16.40;;;;;;;17.14;72.59;98860.19;5298330;27;20061;-78
2022/10/12 06:58:08;;;;;;;30.00;15.20;;;;;;;18.49;67.20;98866.97;5297340;27;20057;-78
2022/10/12 07:00:36;;;;;;;28.42;14.55;;;;;;;18.66;65.03;98869.41;5299194;27;20475;-78
2022/10/12 07:03:04;;;;;;;25.90;14.65;;;;;;;18.15;65.92;98861.19;5299126;27;20077;-78
2022/10/12 07:05:31;;;;;;;29.95;13.95;;;;;;;18.95;63.66;98872.81;5298633;27;20113;-78
2022/10/12 07:08:00;;;;;;;29.42;15.27;;;;;;;18.45;64.87;98866.31;5297736;27;20053;-79
2022/10/12 07:10:33;;;;;;;27.80;13.13;;;;;;;18.26;66.59;98872.75;5298942;27;20108;-80
2022/10/12 07:13:02;;;;;;;33.10;14.95;;;;;;;18.80;64.50;98881.59;5298717;27;20385;-80
2022/10/12 07:15:31;;;;;;;27.80;14.75;;;;;;;18.91;65.45;98879.13;5298827;27;20053;-80
2022/10/12 07:17:59;;;;;;;29.75;14.45;;;;;;;19.54;61.85;98870.66;5296889;27;20458;-79
2022/10/12 07:20:27;;;;;;;26.40;13.40;;;;;;;18.85;63.22;98876.09;5299220;27;20076;-80
2022/10/12 07:22:54;;;;;;;26.37;13.52;;;;;;;19.33;62.28;98878.16;5299021;27;20118;-79
2022/10/12 07:25:22;;;;;;;23.23;12.90;;;;;;;18.95;62.88;98879.81;5298366;27;20057;-80
2022/10/12 07:27:49;;;;;;;24.10;12.52;;;;;;;19.41;61.25;98884.69;5297416;27;20474;-80
2022/10/12 07:30:17;;;;;;;26.15;13.30;;;;;;;19.76;59.60;98872.72;5279528;27;20331;-80
2022/10/12 07:32:45;;;;;;;27.58;11.52;;;;;;;20.26;58.14;98872.84;5298602;27;20053;-80
2022/10/12 07:35:12;;;;;;;24.40;11.80;;;;;;;18.90;60.77;98881.84;5299025;27;20110;-79
2022/10/12 07:37:39;;;;;;;22.95;11.70;;;;;;;19.01;61.40;98871.56;5297621;27;20106;-79
2022/10/12 07:40:07;;;;;;;24.42;12.45;;;;;;;19.45;60.77;98876.50;5298394;27;20050;-80
2022/10/12 07:42:33;;;;;;;20.60;11.45;;;;;;;19.19;62.08;98874.78;5299000;27;20072;-81
2022/10/12 07:45:00;;;;;;;20.98;12.15;;;;;;;19.04;61.36;98877.44;5298890;27;20061;-80
2022/10/12 07:47:27;;;;;;;22.58;12.63;;;;;;;19.01;61.88;98882.00;5297141;27;20057;-79
2022/10/12 07:49:54;;;;;;;23.12;11.88;;;;;;;19.04;61.58;98872.22;5298813;27;20045;-79
2022/10/12 07:52:21;;;;;;;26.55;11.93;;;;;;;19.22;60.25;98866.72;5299137;27;20057;-79
2022/10/12 07:54:54;;;;;;;22.98;13.00;;;;;;;19.25;61.45;98877.00;5298528;27;20482;-80
2022/10/12 07:57:21;;;;;;;22.25;12.60;;;;;;;18.88;61.33;98875.91;5297300;27;20068;-80
2022/10/12 07:59:48;;;;;;;24.25;11.80;;;;;;;19.62;58.99;98875.44;5298154;27;20060;-78
2022/10/12 08:02:15;;;;;;;22.83;12.60;;;;;;;19.34;59.30;98882.44;5298777;27;20061;-79
2022/10/12 08:04:41;;;;;;;23.92;12.13;;;;;;;19.19;60.03;98880.00;5298632;27;20061;-79
2022/10/12 08:07:08;;;;;;;20.80;11.75;;;;;;;18.41;62.51;98877.06;5297542;27;20057;-79
2022/10/12 08:09:35;;;;;;;25.40;12.63;;;;;;;18.99;61.00;98876.88;5298580;27;20049;-79
2022/10/12 08:12:03;;;;;;;22.02;11.60;;;;;;;19.39;59.95;98871.69;5298711;27;20072;-80
2022/10/12 08:14:30;;;;;;;26.17;12.37;;;;;;;19.50;59.79;98871.81;5297982;27;20483;-80
2022/10/12 08:16:57;;;;;;;22.25;11.82;;;;;;;19.70;58.97;98873.16;5299397;27;20053;-79
2022/10/12 08:19:24;;;;;;;22.30;11.82;;;;;;;19.39;58.93;98874.31;5299084;27;20063;-79
2022/10/12 08:21:51;;;;;;;21.05;11.60;;;;;;;19.38;61.23;98880.50;5299143;27;20057;-79
2022/10/12 08:24:18;;;;;;;19.92;11.00;;;;;;;20.47;57.46;98872.22;5299484;27;20068;-80
2022/10/12 08:26:45;;;;;;;20.33;10.85;;;;;;;19.48;57.74;98873.72;5299290;27;20404;-80
2022/10/12 08:29:12;;;;;;;19.92;9.85;;;;;;;19.93;58.51;98871.59;5299141;27;20083;-81
2022/10/12 08:31:39;;;;;;;18.95;10.32;;;;;;;19.92;57.41;98868.16;5299334;27;20061;-82
2022/10/12 08:34:06;;;;;;;22.95;10.27;;;;;;;20.48;55.31;98871.28;5280086;27;20122;-81
2022/10/12 08:36:33;;;;;;;22.92;10.65;;;;;;;19.77;56.76;98871.78;5299103;27;20328;-80
2022/10/12 08:39:00;;;;;;;21.35;10.80;;;;;;;19.97;57.01;98870.44;5299362;27;20315;-80
2022/10/12 08:41:44;;;;;;;24.15;12.02;;;;;;;19.79;58.35;98861.22;5299486;27;20308;-80
2022/10/12 08:44:40;;;;;;;21.40;10.75;;;;;;;20.03;58.24;98867.41;5299031;27;20734;-80
2022/10/12 08:47:15;;;;;;;19.98;10.82;;;;;;;20.30;57.23;98869.91;5299508;27;20093;-80
2022/10/12 08:49:44;;;;;;;23.10;12.50;;;;;;;21.03;55.02;98869.97;5279658;27;20063;-80
2022/10/12 08:52:22;;;;;;;20.85;11.15;;;;;;;20.18;56.57;98861.09;5299579;27;20065;-80
2022/10/12 08:54:49;;;;;;;19.08;11.12;;;;;;;20.44;56.49;98864.59;5299371;27;20114;-81
2022/10/12 08:57:17;;;;;;;22.33;11.10;;;;;;;20.60;54.89;98866.13;5298891;27;20063;-80
2022/10/12 08:59:45;;;;;;;23.50;11.38;;;;;;;20.56;55.74;98869.91;5299420;27;20055;-80
2022/10/12 09:02:24;;;;;;;20.95;11.05;;;;;;;20.85;54.96;98866.06;5280050;27;20061;-80
2022/10/12 09:05:07;;;;;;;23.27;11.55;;;;;;;20.79;56.24;98869.12;5298703;27;20073;-79
2022/10/12 09:07:37;;;;;;;25.30;11.77;;;;;;;20.34;56.90;98873.16;5279814;27;20067;-80
2022/10/12 09:10:19;;;;;;;22.67;11.25;;;;;;;20.56;56.36;98873.37;5279329;27;20063;-79
2022/10/12 09:12:58;;;;;;;20.70;10.95;;;;;;;20.64;55.38;98865.81;5299168;27;20053;-79
2022/10/12 09:15:28;;;;;;;22.20;10.55;;;;;;;21.11;53.90;98873.81;5298889;27;20076;-80
2022/10/12 09:17:56;;;;;;;26.17;11.43;;;;;;;20.39;56.04;98871.06;5299545;27;20057;-80
2022/10/12 09:20:45;;;;;;;22.77;12.10;;;;;;;20.34;58.37;98870.53;5280735;27;20074;-80
2022/10/12 09:23:18;;;;;;;23.87;12.40;;;;;;;21.08;55.30;98865.22;5280772;27;20076;-80
2022/10/12 09:25:46;;;;;;;23.40;12.30;;;;;;;20.20;57.81;98868.84;5299564;27;20057;-80
2022/10/12 09:28:19;;;;;;;25.05;12.35;;;;;;;21.19;54.73;98866.25;5280796;27;20053;-80
2022/10/12 09:30:58;;;;;;;20.27;11.52;;;;;;;21.25;54.78;98874.47;5300279;27;20568;-80
2022/10/12 09:33:34;;;;;;;20.35;11.35;;;;;;;21.94;52.67;98874.63;5300114;27;20467;-80
2022/10/12 09:36:01;;;;;;;20.00;10.57;;;;;;;21.17;53.50;98870.78;5299976;27;20102;-80
2022/10/12 09:38:28;;;;;;;23.95;12.13;;;;;;;20.88;55.39;98860.59;5299792;27;20057;-80
2022/10/12 09:40:55;;;;;;;26.05;11.68;;;;;;;21.02;55.59;98868.28;5300201;27;20327;-80
2022/10/12 09:43:21;;;;;;;21.27;11.07;;;;;;;20.45;57.55;98865.41;5300123;27;20054;-80
2022/10/12 09:45:48;;;;;;;24.33;11.50;;;;;;;20.93;55.26;98866.31;5280026;27;20067;-79
2022/10/12 09:48:23;;;;;;;23.23;12.25;;;;;;;21.14;54.01;98874.44;5283483;27;20063;-86
2022/10/12 09:50:56;;;;;;;25.60;11.70;;;;;;;21.15;55.80;98870.84;5309575;27;20120;-78
2022/10/12 09:53:46;;;;;;;23.42;11.20;;;;;;;21.06;54.82;98871.56;5280434;27;20066;-82
2022/10/12 09:56:38;;;;;;;20.52;11.57;;;;;;;20.82;56.37;98876.75;5280464;27;20076;-82
2022/10/12 09:59:17;;;;;;;22.20;12.27;;;;;;;21.29;54.35;98873.34;5280621;27;20067;-80
2022/10/12 10:02:14;;;;;;;22.67;12.52;;;;;;;20.91;54.57;98877.88;5280968;27;20174;-80
2022/10/12 10:04:43;;;;;;;22.60;12.85;;;;;;;21.02;54.69;98881.41;5300004;27;20065;-79
2022/10/12 10:07:24;;;;;;;25.75;13.20;;;;;;;21.70;53.07;98876.50;5280045;27;20061;-80
2022/10/12 10:10:09;;;;;;;22.62;12.93;;;;;;;21.40;54.58;98882.22;5300118;27;20402;-80
2022/10/12 10:13:00;;;;;;;24.37;13.27;;;;;;;22.86;50.24;98878.84;5300095;27;20048;-80
2022/10/12 10:15:49;;;;;;;28.77;13.40;;;;;;;22.62;50.61;98880.78;5299407;27;20057;-80
2022/10/12 10:18:32;;;;;;;25.60;13.57;;;;;;;21.22;53.93;98882.59;5299649;27;20058;-79
2022/10/12 10:20:59;;;;;;;29.98;13.23;;;;;;;21.14;54.17;98886.72;5299747;27;20048;-80
2022/10/12 10:23:33;;;;;;;23.00;12.45;;;;;;;22.68;51.10;98893.44;5280585;27;20056;-79
2022/10/12 10:26:05;;;;;;;23.40;11.18;;;;;;;23.86;47.88;98893.47;5299823;27;20072;-79
2022/10/12 10:28:37;;;;;;;22.58;12.57;;;;;;;23.75;46.64;98895.34;5299554;27;20415;-79
2022/10/12 10:31:20;;;;;;;23.02;11.25;;;;;;;24.64;44.99;98888.59;5299896;27;20418;-80
2022/10/12 10:34:15;;;;;;;22.15;12.63;;;;;;;23.18;47.99;98883.31;5281729;27;20056;-80
2022/10/12 10:36:46;;;;;;;23.27;12.75;;;;;;;24.43;45.95;98886.84;5299918;27;20069;-80
2022/10/12 10:39:24;;;;;;;23.23;13.15;;;;;;;24.05;46.63;98891.91;5280563;27;20072;-80
2022/10/12 10:41:54;;;;;;;26.15;13.60;;;;;;;22.98;49.65;98887.59;5280144;27;20064;-80
2022/10/12 10:44:28;;;;;;;22.87;12.37;;;;;;;24.26;45.56;98892.72;5299821;27;20045;-80
2022/10/12 10:46:58;;;;;;;22.23;12.02;;;;;;;24.68;44.78;98887.38;5280563;27;20065;-80
2022/10/12 10:49:41;;;;;;;22.37;12.13;;;;;;;24.78;44.71;98890.88;5299404;27;20072;-80
2022/10/12 10:52:30;;;;;;;22.42;11.95;;;;;;;24.75;43.63;98889.31;5281378;27;20049;-80
2022/10/12 10:55:09;;;;;;;25.52;12.00;;;;;;;25.29;42.97;98884.59;5280247;27;20313;-80
2022/10/12 10:57:41;;;;;;;20.95;12.20;;;;;;;25.11;44.46;98881.81;5299817;27;20065;-80
2022/10/12 11:00:14;;;;;;;23.83;12.80;;;;;;;24.71;46.04;98882.66;5300087;27;20687;-80
2022/10/12 11:03:23;;;;;;;23.52;11.90;;;;;;;24.80;45.39;98875.75;5283089;27;20053;-80
2022/10/12 11:05:59;;;;;;;20.27;11.30;;;;;;;25.18;43.57;98882.91;5299100;27;20057;-80
2022/10/12 11:08:29;;;;;;;23.23;13.20;;;;;;;24.36;44.28;98877.81;5299662;27;20065;-80
2022/10/12 11:11:00;;;;;;;23.95;12.65;;;;;;;24.05;46.05;98879.56;5299033;27;20113;-80
2022/10/12 11:13:47;;;;;;;24.25;12.88;;;;;;;24.70;44.50;98881.00;5280685;27;20551;-80
2022/10/12 11:16:35;;;;;;;21.77;12.18;;;;;;;25.72;42.52;98870.97;5279751;27;20049;-80
2022/10/12 11:19:17;;;;;;;22.37;13.10;;;;;;;24.98;43.44;98873.25;5299462;27;20061;-80
2022/10/12 11:21:52;;;;;;;19.67;11.73;;;;;;;24.72;45.37;98876.41;5300013;27;20057;-80
2022/10/12 11:24:24;;;;;;;21.95;11.55;;;;;;;25.09;43.57;98873.16;5299412;27;20053;-80
2022/10/12 11:26:56;;;;;;;24.27;12.93;;;;;;;24.96;43.63;98869.94;5280150;27;20055;-80
2022/10/12 11:29:23;;;;;;;23.48;12.25;;;;;;;25.09;43.35;98881.94;5299881;27;20057;-79
2022/10/12 11:32:01;;;;;;;23.08;11.45;;;;;;;24.48;45.83;98873.28;5299327;27;20062;-79
2022/10/12 11:34:41;;;;;;;19.98;11.85;;;;;;;25.91;42.34;98865.66;5280546;27;20105;-79